»·PEaware :: N426SF KSBA-KSMO

N426SF :: KSBA-KSMO

FLIGHT INFORMATION

Flight Status: Arrived
Operator: Privately registered:
United States
More flights under this callsign
Pilot: Maxwell R. (25989)
Aircraft: PIPER PA-28R-201 ARROW
(P28R)
More flights by this aircraft type
Origin: KSBA Santa Barbara Mun
United States
Destination: KSMO Santa Monica Mun
United States
More flights between these airports :: More routes between these airports
Route: KWANG CMA VNY V186 DARTS
File this flight plan on PilotEdge
Remarks:
Altitude:
(Current/Filed)
5,000ft
Speed:
(Current/Filed)
140kts
Departed: 13-Nov-19 01:42 PM
Arrived: 13-Nov-19 02:31 PM
Distance/Time
Traveled:
73nm/0:49
Distance/Time
To Go:
Arrived

Flight Plot

Page will automatically refresh every two minutes.


Map Options




Map Legend


Flown Route
Filed Route
Departure Airport
Arrival Airport
Navaid (VOR, NDB)
Fix

Horizontal Profiles

Position Reports

Time Latitude Longitude Heading Altitude Ground
Speed
13-Nov-19 13:23 34.432568 -119.835090 71 13ft 0kts
13-Nov-19 13:24 34.432568 -119.835090 71 13ft 0kts
13-Nov-19 13:25 34.432568 -119.835090 71 13ft 0kts
13-Nov-19 13:26 34.432568 -119.835090 71 13ft 0kts
13-Nov-19 13:27 34.432568 -119.835090 71 13ft 0kts
13-Nov-19 13:28 34.432568 -119.835090 71 13ft 0kts
13-Nov-19 13:29 34.432568 -119.835090 71 13ft 0kts
13-Nov-19 13:30 34.432568 -119.835090 71 13ft 0kts
13-Nov-19 13:31 34.432568 -119.835090 71 13ft 0kts
13-Nov-19 13:32 34.432568 -119.835090 71 13ft 0kts
13-Nov-19 13:32 34.432568 -119.835090 71 13ft 0kts
13-Nov-19 13:34 34.432568 -119.835090 71 13ft 0kts
13-Nov-19 13:34 34.432568 -119.835090 71 13ft 0kts
13-Nov-19 13:35 34.432791 -119.835055 302 13ft 6kts
13-Nov-19 13:37 34.432676 -119.835288 194 13ft 0kts
13-Nov-19 13:37 34.432421 -119.835309 184 13ft 0kts
13-Nov-19 13:38 34.431236 -119.838032 249 13ft 8kts
13-Nov-19 13:39 34.430730 -119.839683 248 13ft 0kts
13-Nov-19 13:40 34.430730 -119.839683 248 13ft 0kts
13-Nov-19 13:41 34.426429 -119.839065 165 78ft 75kts
13-Nov-19 13:42 34.403434 -119.832871 171 1253ft 92kts
13-Nov-19 13:43 34.378113 -119.826193 167 2192ft 94kts
13-Nov-19 13:44 34.352371 -119.820512 169 3146ft 95kts
13-Nov-19 13:45 34.326382 -119.815261 174 4155ft 96kts
13-Nov-19 13:46 34.308313 -119.794582 110 5035ft 104kts
13-Nov-19 13:47 34.303363 -119.756907 97 5047ft 121kts
13-Nov-19 13:48 34.302094 -119.715626 96 4968ft 121kts
13-Nov-19 13:49 34.296934 -119.675868 102 5026ft 118kts
13-Nov-19 13:50 34.290920 -119.635770 101 4999ft 122kts
13-Nov-19 13:51 34.285295 -119.595319 103 5016ft 122kts
13-Nov-19 13:52 34.279793 -119.554334 99 5026ft 124kts
13-Nov-19 13:53 34.273571 -119.513140 104 5036ft 125kts
13-Nov-19 13:54 34.267121 -119.471305 102 5002ft 126kts
13-Nov-19 13:55 34.260815 -119.429169 102 4980ft 126kts
13-Nov-19 13:56 34.255303 -119.387014 98 5000ft 130kts
13-Nov-19 13:57 34.250005 -119.343345 102 5051ft 131kts
13-Nov-19 13:58 34.243326 -119.299701 101 5072ft 132kts
13-Nov-19 13:59 34.236516 -119.255629 103 5049ft 133kts
13-Nov-19 14:00 34.229637 -119.211580 102 5026ft 133kts
13-Nov-19 14:01 34.222888 -119.167300 102 5028ft 135kts
13-Nov-19 14:02 34.215307 -119.122369 102 5040ft 137kts
13-Nov-19 14:03 34.211239 -119.076633 90 5040ft 138kts
13-Nov-19 14:04 34.210878 -119.030352 89 5022ft 137kts
13-Nov-19 14:05 34.211668 -118.984164 90 4977ft 137kts
13-Nov-19 14:06 34.211730 -118.938440 93 4974ft 135kts
13-Nov-19 14:07 34.210628 -118.893177 88 5021ft 132kts
13-Nov-19 14:08 34.212656 -118.848447 86 5060ft 134kts
13-Nov-19 14:09 34.214096 -118.802619 87 4974ft 136kts
13-Nov-19 14:10 34.215263 -118.757588 88 5040ft 129kts
13-Nov-19 14:11 34.216860 -118.712937 88 5032ft 134kts
13-Nov-19 14:12 34.218322 -118.668066 88 5013ft 133kts
13-Nov-19 14:13 34.219021 -118.623193 91 4979ft 132kts
13-Nov-19 14:14 34.219331 -118.580614 91 5021ft 130kts
13-Nov-19 14:15 34.219995 -118.535921 89 5031ft 131kts
13-Nov-19 14:16 34.218771 -118.492151 115 4961ft 129kts
13-Nov-19 14:17 34.207048 -118.450759 110 4967ft 128kts
13-Nov-19 14:18 34.195230 -118.409968 111 4998ft 128kts
13-Nov-19 14:19 34.182824 -118.369675 114 4766ft 118kts
13-Nov-19 14:20 34.171292 -118.338186 119 4324ft 102kts
13-Nov-19 14:21 34.158088 -118.305834 114 4327ft 111kts
13-Nov-19 14:22 34.137695 -118.287578 215 4294ft 108kts
13-Nov-19 14:23 34.120922 -118.316085 225 3729ft 104kts
13-Nov-19 14:24 34.103380 -118.340284 223 2768ft 88kts
13-Nov-19 14:25 34.086850 -118.361371 226 2553ft 84kts
13-Nov-19 14:26 34.069676 -118.383178 224 1932ft 90kts
13-Nov-19 14:27 34.052787 -118.404902 226 1300ft 85kts
13-Nov-19 14:28 34.036209 -118.425819 226 737ft 86kts
13-Nov-19 14:29 34.020555 -118.445743 223 240ft 76kts
13-Nov-19 14:30 34.014257 -118.452335 137 133ft 0kts
13-Nov-19 14:31 34.013819 -118.452109 141 132ft 0kts

Navigation Log

Ident Type
Flight plan parsing failed, navigation log unavailable